createdAt,value
2022-10-11T00:05:48.143Z,101757.00
2022-10-11T00:16:13.302Z,101783.00
2022-10-11T00:26:34.828Z,101801.00
2022-10-11T00:36:57.984Z,101809.00
2022-10-11T00:47:21.229Z,101823.00
2022-10-11T00:57:49.420Z,101842.00
2022-10-11T01:08:11.025Z,101851.00
2022-10-11T01:18:39.234Z,101861.00
2022-10-11T01:29:11.788Z,101876.00
2022-10-11T01:39:39.566Z,101896.00
2022-10-11T01:50:02.456Z,101895.00
2022-10-11T02:00:31.766Z,101897.00
2022-10-11T02:10:59.724Z,101905.00
2022-10-11T02:21:24.352Z,101913.00
2022-10-11T02:31:46.780Z,101923.00
2022-10-11T02:42:15.259Z,101928.00
2022-10-11T02:52:36.687Z,101927.00
2022-10-11T03:02:59.338Z,101950.00
2022-10-11T03:13:20.744Z,101955.00
2022-10-11T03:23:43.150Z,101968.00
2022-10-11T03:34:04.731Z,101992.00
2022-10-11T03:44:27.860Z,102010.00
2022-10-11T03:54:49.454Z,102004.00
2022-10-11T04:05:12.624Z,102017.00
2022-10-11T04:15:34.221Z,102040.00
2022-10-11T04:25:56.951Z,102028.00
2022-10-11T04:36:18.186Z,102041.00
2022-10-11T04:46:40.730Z,102051.00
2022-10-11T04:57:02.017Z,102053.00
2022-10-11T05:07:24.691Z,102073.00
2022-10-11T05:17:45.896Z,102080.00
2022-10-11T05:28:08.746Z,102098.00
2022-10-11T05:38:30.642Z,102114.00
2022-10-11T05:48:53.481Z,102118.00
2022-10-11T05:59:15.196Z,102135.00
2022-10-11T06:09:37.666Z,102141.00
2022-10-11T06:19:59.282Z,102155.00
2022-10-11T06:30:21.747Z,102162.00
2022-10-11T06:40:43.276Z,102172.00
2022-10-11T06:51:06.392Z,102180.00
2022-10-11T07:01:28.550Z,102202.00
2022-10-11T07:11:51.249Z,102212.00
2022-10-11T07:22:12.795Z,102222.00
2022-10-11T07:32:35.600Z,102230.00
2022-10-11T07:42:58.288Z,102242.00
2022-10-11T07:53:21.340Z,102258.00
2022-10-11T08:03:43.051Z,102264.00
2022-10-11T08:14:08.842Z,102268.00
2022-10-11T08:24:33.542Z,102282.00
2022-10-11T08:35:00.251Z,102276.00
2022-10-11T08:45:29.496Z,102287.00
2022-10-11T08:55:53.480Z,102285.00
2022-10-11T09:06:27.083Z,102299.00
2022-10-11T09:17:00.655Z,102310.00
2022-10-11T09:27:43.659Z,102305.00
2022-10-11T09:38:19.134Z,102314.00
2022-10-11T09:48:42.539Z,102307.00
2022-10-11T09:59:19.691Z,102307.00
2022-10-11T10:09:41.074Z,102309.00
2022-10-11T10:20:05.648Z,102318.00
2022-10-11T10:30:29.795Z,102338.00
2022-10-11T10:40:59.050Z,102343.00
2022-10-11T10:51:35.000Z,102329.00
2022-10-11T11:02:21.445Z,102328.00
2022-10-11T11:12:50.804Z,102332.00
2022-10-11T11:23:23.436Z,102335.00
2022-10-11T11:33:54.695Z,102323.00
2022-10-11T11:44:27.168Z,102342.00
2022-10-11T11:54:53.128Z,102339.00
2022-10-11T12:05:18.129Z,102320.00
2022-10-11T12:15:39.719Z,102316.00
2022-10-11T12:26:32.013Z,102324.00
2022-10-11T12:36:53.763Z,102327.00
2022-10-11T12:47:35.407Z,102314.00
2022-10-11T12:58:41.296Z,102332.00
2022-10-11T13:09:08.006Z,102333.00
2022-10-11T13:19:30.942Z,102342.00
2022-10-11T13:29:56.160Z,102338.00
2022-10-11T13:40:21.105Z,102325.00
2022-10-11T13:50:46.525Z,102337.00
2022-10-11T14:01:20.235Z,102332.00
2022-10-11T14:11:43.273Z,102330.00
2022-10-11T14:22:05.668Z,102322.00
2022-10-11T14:32:31.774Z,102331.00
2022-10-11T14:42:53.594Z,102330.00
2022-10-11T14:53:16.611Z,102329.00
2022-10-11T15:03:37.907Z,102329.00
2022-10-11T15:14:06.347Z,102336.00
2022-10-11T15:24:29.171Z,102330.00
2022-10-11T15:34:52.314Z,102329.00
2022-10-11T15:45:17.091Z,102338.00
2022-10-11T15:55:44.637Z,102342.00
2022-10-11T16:06:09.232Z,102348.00
2022-10-11T16:16:32.215Z,102357.00
2022-10-11T16:26:53.988Z,102365.00
2022-10-11T16:37:22.195Z,102368.00
2022-10-11T16:47:53.794Z,102373.00
2022-10-11T16:58:16.950Z,102375.00
2022-10-11T17:08:51.912Z,102376.00
2022-10-11T17:19:16.967Z,102389.00
2022-10-11T17:29:41.729Z,102384.00
2022-10-11T17:40:06.894Z,102396.00
2022-10-11T17:50:28.349Z,102397.00
2022-10-11T18:00:51.018Z,102390.00
2022-10-11T18:11:14.127Z,102396.00
2022-10-11T18:21:40.315Z,102396.00
2022-10-11T18:32:01.515Z,102393.00
2022-10-11T18:42:26.384Z,102396.00
2022-10-11T18:52:48.592Z,102389.00
2022-10-11T19:03:11.382Z,102386.00
2022-10-11T19:13:33.271Z,102382.00
2022-10-11T19:23:59.652Z,102377.00
2022-10-11T19:34:21.276Z,102367.00
2022-10-11T19:44:43.979Z,102375.00
2022-10-11T19:55:05.712Z,102378.00
2022-10-11T20:05:31.903Z,102374.00
2022-10-11T20:16:05.103Z,102374.00
2022-10-11T20:26:32.161Z,102385.00
2022-10-11T20:36:53.932Z,102377.00
2022-10-11T20:47:23.020Z,102401.00
2022-10-11T20:57:52.053Z,102381.00
2022-10-11T21:08:16.177Z,102389.00
2022-10-11T21:18:37.846Z,102392.00
2022-10-11T21:29:00.706Z,102385.00
2022-10-11T21:39:22.099Z,102402.00
2022-10-11T21:49:45.040Z,102408.00
2022-10-11T22:00:10.026Z,102393.00
2022-10-11T22:10:36.346Z,102401.00
2022-10-11T22:21:04.213Z,102388.00
2022-10-11T22:31:27.708Z,102402.00
2022-10-11T22:41:48.980Z,102392.00
2022-10-11T22:52:11.475Z,102388.00
2022-10-11T23:02:32.517Z,102386.00
2022-10-11T23:12:55.362Z,102390.00
2022-10-11T23:23:17.200Z,102394.00
2022-10-11T23:33:40.102Z,102393.00
2022-10-11T23:44:01.552Z,102409.00
2022-10-11T23:54:24.134Z,102408.00
